Time;durP1;ratioP1;P1;durP2;ratioP2;P2;SDS_P1;SDS_P2;PMS_P1;PMS_P2;Temp;Humidity;BMP_temperature;BMP_pressure;BME280_temperature;BME280_humidity;BME280_pressure;Samples;Min_cycle;Max_cycle;Signal;HPM_P1;HPM_P2
2021/09/22 00:09:47;;;;;;;8.80;7.97;;;;;;;8.62;100.00;101073.69;20947437;28;20227;-68
2021/09/22 00:19:49;;;;;;;9.50;8.60;;;;;;;8.57;100.00;101073.03;20929436;28;20288;-68
2021/09/22 00:29:54;;;;;;;9.87;8.87;;;;;;;8.54;100.00;101073.16;20897829;28;20355;-68
2021/09/22 00:39:57;;;;;;;8.80;7.90;;;;;;;8.48;100.00;101060.09;20884203;28;20288;-68
2021/09/22 00:50:01;;;;;;;9.23;8.30;;;;;;;8.38;100.00;101058.78;20906741;28;20289;-68
2021/09/22 01:00:04;;;;;;;10.27;9.17;;;;;;;8.35;100.00;101053.59;20899954;28;20222;-68
2021/09/22 01:10:09;;;;;;;9.33;8.43;;;;;;;8.34;100.00;101051.88;20880973;28;20314;-68
2021/09/22 01:20:14;;;;;;;10.40;9.27;;;;;;;8.27;100.00;101046.78;20892450;28;20238;-68
2021/09/22 01:30:18;;;;;;;10.80;9.70;;;;;;;8.20;100.00;101058.63;20877490;28;20235;-68
2021/09/22 01:40:21;;;;;;;10.40;9.20;;;;;;;8.17;100.00;101060.56;20891947;28;23919;-68
2021/09/22 01:50:27;;;;;;;10.03;9.03;;;;;;;8.15;100.00;101060.59;20873998;28;20224;-68
2021/09/22 02:00:31;;;;;;;10.63;9.43;;;;;;;8.20;100.00;101055.13;20890757;28;20590;-68
2021/09/22 02:10:35;;;;;;;10.90;9.13;;;;;;;8.15;100.00;101046.44;20876018;28;20279;-68
2021/09/22 02:20:37;;;;;;;11.90;9.73;;;;;;;8.03;100.00;101034.53;20904480;28;20226;-68
2021/09/22 02:30:53;;;;;;;12.20;10.40;;;;;;;7.96;100.00;101030.44;20893790;28;20861;-69
2021/09/22 02:40:56;;;;;;;10.60;9.30;;;;;;;8.02;100.00;101032.81;20897067;28;20227;-69
2021/09/22 02:51:03;;;;;;;9.37;8.37;;;;;;;8.05;100.00;101031.84;20901125;28;20240;-69
2021/09/22 03:01:05;;;;;;;10.63;9.53;;;;;;;7.98;100.00;101033.88;20902272;28;20846;-68
2021/09/22 03:11:09;;;;;;;10.53;9.17;;;;;;;7.99;100.00;101040.03;20902900;28;20238;-68
2021/09/22 03:21:13;;;;;;;10.90;9.43;;;;;;;7.98;100.00;101039.19;20885864;28;20226;-69
2021/09/22 03:31:17;;;;;;;12.83;11.27;;;;;;;7.99;100.00;101045.34;20900874;28;20355;-69
2021/09/22 03:41:20;;;;;;;11.13;10.03;;;;;;;7.95;100.00;101049.97;20881046;28;20702;-69
2021/09/22 03:51:24;;;;;;;10.63;9.53;;;;;;;7.95;100.00;101057.94;20915055;28;20238;-69
2021/09/22 04:01:28;;;;;;;11.17;10.07;;;;;;;7.97;100.00;101048.09;20886384;28;20241;-69
2021/09/22 04:11:32;;;;;;;12.43;11.23;;;;;;;7.97;100.00;101047.25;20889620;28;20258;-69
2021/09/22 04:21:35;;;;;;;12.27;10.97;;;;;;;8.00;100.00;101042.66;20889592;28;20223;-69
2021/09/22 04:31:40;;;;;;;12.23;10.10;;;;;;;8.04;100.00;101052.22;20858230;28;20296;-69
2021/09/22 04:42:01;;;;;;;12.97;11.67;;;;;;;8.11;100.00;101066.09;20949978;28;20224;-69
2021/09/22 04:52:24;;;;;;;11.73;10.63;;;;;;;8.16;100.00;101059.69;20859228;28;20291;-69
2021/09/22 05:02:46;;;;;;;13.10;11.70;;;;;;;8.28;100.00;101077.78;20865951;28;20313;-69
2021/09/22 05:13:09;;;;;;;11.63;10.40;;;;;;;8.45;100.00;101071.75;20837106;28;20246;-69
2021/09/22 05:23:29;;;;;;;9.43;8.53;;;;;;;8.66;100.00;101075.28;20866806;28;20230;-69
2021/09/22 05:33:54;;;;;;;9.10;8.30;;;;;;;8.93;100.00;101071.38;20859449;28;20241;-68
2021/09/22 05:44:16;;;;;;;7.93;7.33;;;;;;;9.25;100.00;101085.00;20919374;28;20276;-60
2021/09/22 05:54:41;;;;;;;8.13;7.43;;;;;;;9.40;100.00;101097.63;20922731;28;20733;-60
2021/09/22 06:05:02;;;;;;;8.77;8.00;;;;;;;9.58;100.00;101103.84;20908715;28;20218;-62
2021/09/22 06:15:25;;;;;;;8.13;7.53;;;;;;;9.82;100.00;101102.69;20874427;28;20728;-68
2021/09/22 06:25:29;;;;;;;7.87;7.27;;;;;;;10.02;100.00;101112.38;20873205;28;20298;-66
2021/09/22 06:35:34;;;;;;;8.03;7.40;;;;;;;10.22;100.00;101114.94;20877272;28;20253;-66
2021/09/22 06:45:41;;;;;;;7.60;7.00;;;;;;;10.55;100.00;101115.03;20889375;28;20250;-67
2021/09/22 06:55:45;;;;;;;7.03;6.43;;;;;;;11.04;100.00;101132.03;20892636;28;20247;-67
2021/09/22 07:05:48;;;;;;;8.00;7.30;;;;;;;11.13;100.00;101134.19;20903167;28;20251;-66
2021/09/22 07:15:53;;;;;;;6.47;5.97;;;;;;;11.49;100.00;101135.81;20909560;28;20719;-67
2021/09/22 07:25:56;;;;;;;6.13;5.57;;;;;;;11.54;100.00;101139.13;20896640;28;20238;-66
2021/09/22 07:36:00;;;;;;;5.33;4.93;;;;;;;12.18;100.00;101146.22;20897369;28;20229;-67
2021/09/22 07:46:04;;;;;;;4.97;4.47;;;;;;;11.94;100.00;101152.97;20886959;28;20725;-67
2021/09/22 07:56:09;;;;;;;5.00;4.70;;;;;;;11.39;100.00;101145.28;20889349;28;20787;-67
2021/09/22 08:06:11;;;;;;;4.50;4.10;;;;;;;11.44;100.00;101146.78;20889130;28;20223;-67
2021/09/22 08:16:16;;;;;;;3.67;3.13;;;;;;;11.88;100.00;101148.81;20889121;28;20825;-67
2021/09/22 08:26:18;;;;;;;4.50;4.10;;;;;;;12.12;100.00;101154.59;20885442;28;20286;-67
2021/09/22 08:36:22;;;;;;;3.00;2.80;;;;;;;12.12;100.00;101159.94;20889311;28;20320;-67
2021/09/22 08:46:25;;;;;;;3.07;2.87;;;;;;;12.66;100.00;101147.84;20886723;28;20239;-67
2021/09/22 08:56:29;;;;;;;3.43;2.57;;;;;;;12.81;100.00;101140.66;20886845;28;20643;-67
2021/09/22 09:06:34;;;;;;;9.47;5.30;;;;;;;13.23;96.39;101138.09;20885055;28;20232;-67
2021/09/22 09:16:39;;;;;;;2.03;1.93;;;;;;;13.57;100.00;101130.59;20885193;28;20229;-67
2021/09/22 09:26:42;;;;;;;2.63;1.83;;;;;;;12.94;96.92;101128.25;20880921;28;20232;-68
2021/09/22 09:36:47;;;;;;;2.80;2.60;;;;;;;13.73;99.99;101115.25;20883411;28;20784;-67
2021/09/22 09:46:50;;;;;;;1.60;1.50;;;;;;;13.49;85.94;101123.03;20881460;28;20235;-67
2021/09/22 09:56:56;;;;;;;3.43;3.13;;;;;;;14.13;100.00;101112.63;20880863;28;20769;-68
2021/09/22 10:06:58;;;;;;;2.17;1.97;;;;;;;13.66;86.14;101114.75;20881021;28;20665;-68
2021/09/22 10:17:03;;;;;;;2.47;2.27;;;;;;;13.24;82.44;101123.72;20883159;28;20292;-68
2021/09/22 10:27:06;;;;;;;3.13;2.83;;;;;;;13.48;92.07;101104.38;20899050;28;20598;-68
2021/09/22 10:37:32;;;;;;;1.80;1.70;;;;;;;13.68;84.67;101102.13;21132992;27;20564;-68
2021/09/22 10:47:50;;;;;;;9.40;5.00;;;;;;;14.14;76.69;101093.72;21217773;27;20598;-68
2021/09/22 10:58:13;;;;;;;1.90;1.80;;;;;;;14.66;71.45;101096.47;21086985;27;1443920;-67
2021/09/22 11:08:35;;;;;;;5.17;3.77;;;;;;;14.47;81.81;101096.00;21046764;27;21112;-68
2021/09/22 11:18:57;;;;;;;4.63;1.93;;;;;;;14.13;77.55;101091.16;20956032;27;20610;-67
2021/09/22 11:29:28;;;;;;;1.90;1.70;;;;;;;13.51;83.77;101090.78;21049771;27;20575;-68
2021/09/22 11:39:44;;;;;;;2.33;1.80;;;;;;;14.23;66.46;101086.91;21080675;27;1341111;-68
2021/09/22 11:50:02;;;;;;;1.43;1.33;;;;;;;14.73;84.48;101087.00;21133145;27;20650;-67
2021/09/22 12:00:23;;;;;;;1.80;1.70;;;;;;;14.31;88.99;101084.56;21136623;27;20576;-68
2021/09/22 12:10:47;;;;;;;1.80;1.53;;;;;;;13.93;78.40;101084.41;21031399;27;20575;-69
2021/09/22 12:21:05;;;;;;;1.77;1.50;;;;;;;13.91;74.62;101087.19;21051013;27;20579;-68
2021/09/22 12:31:22;;;;;;;2.63;1.37;;;;;;;13.38;75.49;101097.88;20961452;27;20567;-68
2021/09/22 12:41:51;;;;;;;1.43;1.33;;;;;;;13.43;88.90;101079.66;20959328;27;21233;-68
2021/09/22 12:52:22;;;;;;;3.03;2.37;;;;;;;13.43;81.16;101095.75;21051383;27;20580;-69
2021/09/22 13:02:40;;;;;;;3.23;2.17;;;;;;;13.69;81.85;101086.88;20976980;27;20579;-69
2021/09/22 13:13:17;;;;;;;2.73;2.00;;;;;;;13.48;86.84;101093.63;21203859;27;20575;-67
2021/09/22 13:23:42;;;;;;;3.03;1.40;;;;;;;13.73;92.22;101083.06;21022032;27;20647;-68
2021/09/22 13:34:02;;;;;;;1.50;1.40;;;;;;;14.50;89.46;101057.31;20940736;27;20611;-67
2021/09/22 13:44:20;;;;;;;4.20;1.40;;;;;;;14.73;76.34;101065.50;20952729;27;21005;-66
2021/09/22 13:54:37;;;;;;;1.60;1.50;;;;;;;14.50;71.36;101079.66;20947658;27;21424;-67
2021/09/22 14:04:54;;;;;;;2.80;2.60;;;;;;;13.91;93.35;101068.41;20928977;27;21145;-67
2021/09/22 14:15:12;;;;;;;3.87;2.33;;;;;;;14.32;100.00;101059.41;21022534;27;20634;-68
2021/09/22 14:25:30;;;;;;;4.63;2.90;;;;;;;14.07;82.05;101050.34;20854084;27;20609;-68
2021/09/22 14:35:48;;;;;;;2.80;1.90;;;;;;;13.89;90.21;101062.28;20931905;27;20604;-66
2021/09/22 14:46:06;;;;;;;2.20;2.00;;;;;;;13.92;89.71;101056.72;20959004;27;20673;-66
2021/09/22 14:56:23;;;;;;;4.00;2.00;;;;;;;13.75;85.16;101054.31;20972281;27;20613;-65
2021/09/22 15:06:40;;;;;;;4.13;1.67;;;;;;;13.33;89.75;101058.81;21089753;27;20630;-66
2021/09/22 15:16:58;;;;;;;1.97;1.87;;;;;;;12.80;98.76;101059.44;21053534;27;20573;-65
2021/09/22 15:37:11;;;;;;;3.53;1.50;;;;;;;11.99;100.00;101055.44;20985679;27;20568;-66
2021/09/22 15:47:29;;;;;;;2.60;2.20;;;;;;;11.49;100.00;101056.50;21228043;27;20557;-66
2021/09/22 15:57:46;;;;;;;2.70;2.50;;;;;;;11.22;100.00;101047.38;21058411;27;20628;-66
2021/09/22 16:08:17;;;;;;;3.67;3.13;;;;;;;11.28;100.00;101063.03;20982808;27;20627;-66
2021/09/22 16:18:35;;;;;;;2.83;2.57;;;;;;;11.35;100.00;101068.94;20943841;27;21108;-66
2021/09/22 16:28:54;;;;;;;4.90;2.87;;;;;;;11.33;100.00;101081.50;21009700;27;20635;-67
2021/09/22 16:39:12;;;;;;;4.20;2.60;;;;;;;11.11;100.00;101079.13;20933912;27;20577;-67
2021/09/22 16:49:29;;;;;;;3.37;2.80;;;;;;;10.67;100.00;101089.50;20963169;27;1346652;-66
2021/09/22 16:59:50;;;;;;;3.80;2.63;;;;;;;10.21;100.00;101077.69;20875625;27;20572;-66
2021/09/22 17:10:15;;;;;;;3.83;3.47;;;;;;;9.65;100.00;101074.19;21028473;27;20630;-66
2021/09/22 17:20:33;;;;;;;9.50;7.57;;;;;;;9.13;100.00;101077.59;21078262;27;21990;-66
2021/09/22 17:40:12;;;;;;;5.37;4.87;;;;;;;8.06;100.00;101063.66;21143926;27;20898;-71
2021/09/22 18:13:52;;;;;;;11.60;10.50;;;;;;;6.83;100.00;101050.84;20773276;28;20790;-69
2021/09/22 18:23:58;;;;;;;10.47;9.43;;;;;;;6.68;100.00;101040.81;20794103;28;20818;-70
2021/09/22 18:34:07;;;;;;;9.80;8.07;;;;;;;6.75;100.00;101047.63;20727467;28;21113;-69
2021/09/22 18:44:11;;;;;;;8.17;7.33;;;;;;;6.74;100.00;101040.59;20779306;28;20227;-70
2021/09/22 18:54:19;;;;;;;7.40;6.70;;;;;;;6.68;100.00;101040.81;20789850;28;20982;-70
2021/09/22 19:04:22;;;;;;;8.53;7.57;;;;;;;6.60;100.00;101042.88;20787635;28;20271;-70
2021/09/22 19:14:29;;;;;;;8.90;8.00;;;;;;;6.64;100.00;101049.78;20665189;28;20604;-70
2021/09/22 19:24:33;;;;;;;9.03;8.23;;;;;;;6.72;100.00;101041.56;20681516;28;20789;-70
2021/09/22 19:34:39;;;;;;;9.63;8.67;;;;;;;6.76;100.00;101049.31;20673865;28;20315;-69
2021/09/22 19:44:43;;;;;;;9.63;8.63;;;;;;;6.61;100.00;101049.06;20694217;28;20232;-68
2021/09/22 19:54:48;;;;;;;7.00;6.30;;;;;;;6.32;100.00;101042.13;20676260;28;20228;-70
2021/09/22 20:04:54;;;;;;;7.80;6.30;;;;;;;6.08;100.00;101042.06;20686669;28;20589;-70
2021/09/22 20:15:00;;;;;;;8.90;7.57;;;;;;;6.39;100.00;101036.56;20668221;28;20261;-68
2021/09/22 20:25:05;;;;;;;8.27;7.17;;;;;;;6.81;100.00;101030.59;20688500;28;20243;-67
2021/09/22 20:35:10;;;;;;;7.60;6.20;;;;;;;7.17;100.00;101029.19;20687935;28;20374;-69
2021/09/22 20:45:13;;;;;;;6.47;5.90;;;;;;;7.51;100.00;101012.78;20618728;28;20265;-69
2021/09/22 20:55:19;;;;;;;7.73;6.30;;;;;;;7.82;100.00;101017.72;20702238;28;20305;-68
2021/09/22 21:05:24;;;;;;;6.17;5.67;;;;;;;8.11;100.00;101020.91;20741699;28;20236;-67
2021/09/22 21:15:34;;;;;;;6.57;5.13;;;;;;;8.34;100.00;101015.50;20742448;28;20219;-67
2021/09/22 21:25:38;;;;;;;6.40;5.80;;;;;;;8.57;100.00;101017.16;20741518;28;20287;-67
2021/09/22 21:35:42;;;;;;;5.83;5.33;;;;;;;8.72;100.00;101021.78;20766984;28;20318;-67
2021/09/22 21:45:45;;;;;;;5.73;5.27;;;;;;;8.81;100.00;101023.19;20740390;28;20232;-67
2021/09/22 21:55:49;;;;;;;6.37;5.87;;;;;;;8.86;100.00;101024.69;20739628;28;20326;-67
2021/09/22 22:05:51;;;;;;;6.87;6.27;;;;;;;8.90;100.00;101010.31;20739576;28;20302;-67
2021/09/22 22:15:55;;;;;;;7.23;6.60;;;;;;;8.98;100.00;100997.50;20739266;28;20600;-67
2021/09/22 22:25:57;;;;;;;7.47;6.80;;;;;;;9.10;100.00;101006.69;20738516;28;20244;-67
2021/09/22 22:36:02;;;;;;;7.67;7.07;;;;;;;9.20;100.00;100997.34;20721202;28;20232;-67
2021/09/22 22:46:05;;;;;;;8.13;7.43;;;;;;;9.33;100.00;100992.28;20738008;28;20323;-67
2021/09/22 22:56:09;;;;;;;9.87;9.07;;;;;;;9.42;100.00;100986.50;20746326;28;20254;-67
2021/09/22 23:06:11;;;;;;;10.13;9.33;;;;;;;9.48;100.00;100980.88;20752000;28;20268;-67
2021/09/22 23:16:16;;;;;;;9.13;8.43;;;;;;;9.51;100.00;100975.41;20751774;28;20265;-67
2021/09/22 23:26:19;;;;;;;8.50;7.70;;;;;;;9.55;100.00;100971.63;20750732;28;20315;-67
2021/09/22 23:36:23;;;;;;;9.40;8.60;;;;;;;9.54;100.00;100953.91;20750443;28;20228;-67
2021/09/22 23:46:25;;;;;;;8.87;8.07;;;;;;;9.54;100.00;100948.59;20749352;28;20227;-67
2021/09/22 23:56:29;;;;;;;8.60;7.90;;;;;;;9.52;100.00;100937.19;20748805;28;20278;-67
